Time;durP1;ratioP1;P1;durP2;ratioP2;P2;SDS_P1;SDS_P2;PMS_P1;PMS_P2;Temp;Humidity;BMP_temperature;BMP_pressure;BME280_temperature;BME280_humidity;BME280_pressure;Samples;Min_cycle;Max_cycle;Signal;HPM_P1;HPM_P2
2023/05/24 00:00:11;;;;;;;6.20;3.03;;;;;;;17.23;67.07;99950.31;5036784;28;20033;-69
2023/05/24 00:02:40;;;;;;;8.27;2.95;;;;;;;17.23;67.07;99955.66;5036783;28;20025;-69
2023/05/24 00:05:09;;;;;;;5.80;2.60;;;;;;;17.22;67.02;99957.41;5036726;28;20040;-69
2023/05/24 00:07:37;;;;;;;6.50;3.03;;;;;;;17.20;67.20;99945.13;5050418;28;20026;-68
2023/05/24 00:10:04;;;;;;;6.15;2.83;;;;;;;17.18;66.80;99942.50;5039075;28;20026;-69
2023/05/24 00:12:30;;;;;;;5.88;2.70;;;;;;;17.17;66.95;99948.75;5035747;28;20045;-69
2023/05/24 00:14:55;;;;;;;7.53;2.90;;;;;;;17.11;66.94;99942.78;5036788;28;20048;-69
2023/05/24 00:17:21;;;;;;;7.37;2.90;;;;;;;17.00;67.07;99937.84;5036469;28;20029;-68
2023/05/24 00:19:46;;;;;;;5.93;2.37;;;;;;;16.91;67.51;99939.88;5036858;28;20284;-68
2023/05/24 00:22:12;;;;;;;6.78;2.80;;;;;;;16.90;67.39;99938.16;5035000;28;20499;-69
2023/05/24 00:24:38;;;;;;;8.83;3.00;;;;;;;16.93;67.35;99932.72;5036734;28;20033;-69
2023/05/24 00:27:04;;;;;;;7.85;3.10;;;;;;;16.91;67.49;99926.59;5036567;28;20047;-69
2023/05/24 00:29:30;;;;;;;7.43;3.05;;;;;;;16.86;67.71;99930.31;5035302;28;20370;-69
2023/05/24 00:31:55;;;;;;;9.13;3.13;;;;;;;16.83;67.64;99923.34;5036329;28;20021;-69
2023/05/24 00:34:20;;;;;;;6.00;2.93;;;;;;;16.81;67.83;99917.22;5036319;28;20079;-69
2023/05/24 00:36:46;;;;;;;6.37;2.87;;;;;;;16.75;67.99;99920.06;5035996;28;20104;-68
2023/05/24 00:39:11;;;;;;;7.13;3.25;;;;;;;16.69;68.16;99923.84;5038832;28;20025;-69
2023/05/24 00:41:36;;;;;;;6.37;3.00;;;;;;;16.65;68.43;99925.72;5054387;28;20032;-69
2023/05/24 00:44:02;;;;;;;6.40;3.13;;;;;;;16.60;68.56;99918.81;5039075;28;20028;-68
2023/05/24 00:46:30;;;;;;;7.63;3.30;;;;;;;16.56;69.02;99923.41;5038420;28;20061;-69
2023/05/24 00:48:56;;;;;;;9.70;3.67;;;;;;;16.52;69.55;99918.22;5055743;28;20021;-68
2023/05/24 00:51:22;;;;;;;8.73;3.72;;;;;;;16.51;69.49;99917.34;5054819;28;20024;-69
2023/05/24 00:53:48;;;;;;;7.53;3.13;;;;;;;16.48;69.70;99920.09;5056020;28;20112;-69
2023/05/24 00:56:15;;;;;;;6.37;2.97;;;;;;;16.47;69.86;99915.72;5047692;28;20128;-69
2023/05/24 00:58:41;;;;;;;6.85;3.25;;;;;;;16.51;69.84;99909.38;5039698;28;20055;-68
2023/05/24 01:01:07;;;;;;;8.50;4.05;;;;;;;16.54;69.73;99909.28;5039816;28;20036;-69
2023/05/24 01:03:33;;;;;;;7.60;3.30;;;;;;;16.57;69.85;99909.19;5039836;28;20389;-69
2023/05/24 01:06:03;;;;;;;7.60;3.60;;;;;;;16.60;69.67;99910.84;5049649;28;20496;-69
2023/05/24 01:08:44;;;;;;;7.63;3.75;;;;;;;16.62;70.24;99916.97;5042842;28;20024;-69
2023/05/24 01:11:57;;;;;;;7.25;3.78;;;;;;;16.61;70.61;99909.91;5055711;28;20031;-68
2023/05/24 01:14:42;;;;;;;9.02;3.50;;;;;;;16.60;70.38;99909.06;5040549;28;20021;-68
2023/05/24 01:17:30;;;;;;;10.80;3.90;;;;;;;16.62;70.19;99917.84;5047763;28;20103;-69
2023/05/24 01:20:01;;;;;;;9.63;3.80;;;;;;;16.63;69.89;99913.41;5059645;28;20025;-69
2023/05/24 01:23:00;;;;;;;7.03;3.70;;;;;;;16.63;70.26;99924.91;5059705;28;20035;-69
2023/05/24 01:25:50;;;;;;;10.70;4.20;;;;;;;16.55;70.65;99924.31;5059786;28;20116;-69
2023/05/24 01:28:17;;;;;;;7.15;3.92;;;;;;;16.55;70.50;99919.00;5058218;28;20085;-69
2023/05/24 01:30:43;;;;;;;8.13;4.23;;;;;;;16.52;70.67;99918.22;5059645;28;20074;-69
2023/05/24 01:33:09;;;;;;;10.55;3.95;;;;;;;16.54;70.70;99921.69;5059376;28;20021;-69
2023/05/24 01:35:39;;;;;;;6.60;3.50;;;;;;;16.56;70.77;99922.50;5059215;28;20474;-69
2023/05/24 01:38:11;;;;;;;8.20;3.97;;;;;;;16.55;70.80;99921.66;5059538;28;20029;-69
2023/05/24 01:40:39;;;;;;;7.50;3.40;;;;;;;16.56;70.62;99922.50;5053377;28;20058;-69
2023/05/24 01:43:22;;;;;;;7.68;4.25;;;;;;;16.54;70.92;99919.03;5056993;28;20108;-69
2023/05/24 01:46:12;;;;;;;10.82;4.30;;;;;;;16.49;71.78;99916.53;5058927;28;20025;-69
2023/05/24 01:49:16;;;;;;;9.88;4.57;;;;;;;16.43;71.93;99914.97;5054897;28;20024;-69
2023/05/24 01:51:52;;;;;;;8.98;4.15;;;;;;;16.40;72.18;99917.75;5058603;28;20056;-69
2023/05/24 01:54:24;;;;;;;8.67;4.30;;;;;;;16.39;71.88;99910.66;5058930;28;20046;-69
2023/05/24 01:56:52;;;;;;;12.23;4.20;;;;;;;16.40;71.89;99916.84;5043727;28;20028;-69
2023/05/24 01:59:20;;;;;;;8.57;4.38;;;;;;;16.39;72.00;99909.81;5039280;28;20026;-68
2023/05/24 02:01:47;;;;;;;10.95;4.55;;;;;;;16.34;72.27;99913.50;5039032;28;20025;-69
2023/05/24 02:04:12;;;;;;;10.18;4.88;;;;;;;16.32;72.40;99915.34;5038914;28;20036;-69
2023/05/24 02:06:37;;;;;;;9.97;4.30;;;;;;;16.34;72.19;99912.63;5053640;28;20455;-69
2023/05/24 02:09:03;;;;;;;10.17;4.10;;;;;;;16.36;72.12;99916.97;5038316;28;21008;-69
2023/05/24 02:11:28;;;;;;;9.70;4.70;;;;;;;16.39;72.37;99915.13;5057214;28;20056;-69
2023/05/24 02:13:54;;;;;;;9.00;4.37;;;;;;;16.36;72.34;99924.94;5043308;28;20055;-69
2023/05/24 02:16:19;;;;;;;10.23;4.27;;;;;;;16.38;72.40;99929.34;5038551;28;20276;-69
2023/05/24 02:18:45;;;;;;;8.00;4.30;;;;;;;16.39;72.70;99933.72;5038657;28;20028;-68
2023/05/24 02:21:11;;;;;;;9.20;3.97;;;;;;;16.42;72.50;99925.66;5038369;28;20472;-68
2023/05/24 02:23:37;;;;;;;8.88;3.97;;;;;;;16.42;72.37;99923.00;5037355;28;20116;-69
2023/05/24 02:26:02;;;;;;;8.73;4.10;;;;;;;16.44;72.42;99919.38;5038428;28;20059;-69
2023/05/24 02:28:31;;;;;;;12.03;4.63;;;;;;;16.43;72.31;99916.75;5038517;28;20157;-68
2023/05/24 02:30:56;;;;;;;9.70;4.60;;;;;;;16.43;72.31;99916.75;5038532;28;20025;-69
2023/05/24 02:33:24;;;;;;;9.10;4.38;;;;;;;16.40;72.55;99922.19;5038460;28;20044;-68
2023/05/24 02:35:50;;;;;;;10.20;4.20;;;;;;;16.41;72.78;99919.47;5038116;28;20418;-68
2023/05/24 02:38:15;;;;;;;8.15;4.50;;;;;;;16.41;72.50;99907.97;5038184;28;20030;-68
2023/05/24 02:40:40;;;;;;;8.80;4.20;;;;;;;16.45;72.47;99917.56;5048886;28;20033;-69
2023/05/24 02:43:06;;;;;;;9.23;4.17;;;;;;;16.48;72.54;99922.78;5048902;28;20053;-69
2023/05/24 02:45:31;;;;;;;10.32;4.65;;;;;;;16.48;72.60;99920.09;5037865;28;20025;-69
2023/05/24 02:47:57;;;;;;;9.80;4.17;;;;;;;16.47;72.51;99915.72;5047403;28;20052;-68
2023/05/24 02:50:22;;;;;;;9.77;4.17;;;;;;;16.50;72.43;99913.84;5056492;28;20067;-68
2023/05/24 02:52:47;;;;;;;9.60;4.30;;;;;;;16.53;72.37;99912.00;5058132;28;20024;-66
2023/05/24 02:55:13;;;;;;;11.37;4.73;;;;;;;16.55;72.37;99905.72;5055363;28;20025;-67
2023/05/24 02:57:38;;;;;;;11.07;5.00;;;;;;;16.54;72.35;99911.94;5036549;28;20036;-67
2023/05/24 03:00:08;;;;;;;11.77;5.00;;;;;;;16.54;72.35;99908.41;5037637;28;20026;-67
2023/05/24 03:02:37;;;;;;;9.98;4.88;;;;;;;16.52;72.59;99915.56;5036536;28;20034;-67
2023/05/24 03:05:03;;;;;;;10.60;5.10;;;;;;;16.54;72.37;99914.59;5037090;28;20053;-67
2023/05/24 03:07:28;;;;;;;10.07;5.00;;;;;;;16.56;72.20;99912.75;5044409;28;20385;-68
2023/05/24 03:09:53;;;;;;;11.10;5.20;;;;;;;16.57;72.11;99916.28;5037646;28;20033;-67
2023/05/24 03:12:19;;;;;;;8.65;4.65;;;;;;;16.57;72.18;99909.19;5037258;28;20026;-68
2023/05/24 03:14:44;;;;;;;10.00;4.73;;;;;;;16.60;72.07;99914.38;5037592;28;20033;-67
2023/05/24 03:17:10;;;;;;;9.07;5.00;;;;;;;16.62;71.91;99912.53;5037254;28;20072;-68
2023/05/24 03:19:36;;;;;;;9.87;4.90;;;;;;;16.63;72.20;99911.63;5037309;28;20057;-67
2023/05/24 03:22:02;;;;;;;13.40;4.90;;;;;;;16.62;72.20;99915.19;5037149;28;20052;-68
2023/05/24 03:24:27;;;;;;;10.63;4.57;;;;;;;16.63;72.35;99910.75;5037351;28;20033;-67
2023/05/24 03:26:53;;;;;;;10.70;5.27;;;;;;;16.59;72.14;99912.66;5037173;28;20104;-68
2023/05/24 03:29:18;;;;;;;12.07;5.00;;;;;;;16.58;72.34;99912.69;5037255;28;20035;-68
2023/05/24 03:31:43;;;;;;;11.68;5.18;;;;;;;16.58;72.61;99916.22;5037165;28;20025;-67
2023/05/24 03:34:09;;;;;;;9.20;5.50;;;;;;;16.57;72.56;99914.50;5036039;28;20017;-68
2023/05/24 03:36:35;;;;;;;9.40;5.33;;;;;;;16.58;72.75;99918.91;5050705;28;20025;-68
2023/05/24 03:39:03;;;;;;;10.57;4.90;;;;;;;16.60;72.69;99914.38;5055930;28;20029;-68
2023/05/24 03:41:28;;;;;;;9.02;4.97;;;;;;;16.62;72.54;99919.63;5052390;28;20073;-68
2023/05/24 03:43:54;;;;;;;11.23;5.20;;;;;;;16.64;72.60;99910.69;5041974;28;20025;-68
2023/05/24 03:46:19;;;;;;;9.17;4.93;;;;;;;16.67;72.23;99903.53;5036856;28;20080;-68
2023/05/24 03:48:45;;;;;;;14.25;5.38;;;;;;;16.69;72.21;99907.00;5052719;28;20558;-68
2023/05/24 03:51:10;;;;;;;10.93;5.47;;;;;;;16.71;71.79;99899.84;5056770;28;20043;-68
2023/05/24 03:53:36;;;;;;;11.33;5.47;;;;;;;16.73;72.43;99903.31;5055404;28;20020;-68
2023/05/24 03:56:01;;;;;;;8.77;5.00;;;;;;;16.73;72.41;99903.31;5048453;28;20029;-67
2023/05/24 03:58:27;;;;;;;9.02;4.57;;;;;;;16.73;72.22;99903.31;5036551;28;20029;-68
2023/05/24 04:00:52;;;;;;;9.87;5.10;;;;;;;16.74;72.22;99900.59;5036769;28;20033;-68
2023/05/24 04:03:20;;;;;;;11.47;4.70;;;;;;;16.74;72.25;99905.03;5047276;28;20033;-68
2023/05/24 04:05:46;;;;;;;10.25;4.57;;;;;;;16.75;72.24;99904.13;5043125;28;20041;-68
2023/05/24 04:08:13;;;;;;;12.47;4.83;;;;;;;16.76;72.37;99900.56;5044003;28;20140;-68
2023/05/24 04:10:38;;;;;;;9.57;4.93;;;;;;;16.77;72.34;99907.63;5036752;28;20268;-68
2023/05/24 04:13:04;;;;;;;10.45;4.68;;;;;;;16.79;72.23;99905.78;5036280;28;20540;-68
2023/05/24 04:15:30;;;;;;;10.03;4.60;;;;;;;16.83;72.04;99910.06;5036805;28;20057;-68
2023/05/24 04:17:55;;;;;;;10.27;5.32;;;;;;;16.86;72.01;99914.38;5036474;28;20033;-67
2023/05/24 04:20:26;;;;;;;11.93;5.83;;;;;;;16.88;72.13;99921.38;5036450;28;20101;-68
2023/05/24 04:22:52;;;;;;;10.60;5.13;;;;;;;16.86;72.09;99920.56;5040028;28;20029;-68
2023/05/24 04:25:17;;;;;;;12.37;5.30;;;;;;;16.87;72.09;99917.00;5036675;28;20448;-68
2023/05/24 04:27:43;;;;;;;10.60;5.45;;;;;;;16.87;72.32;99924.97;5036368;28;20496;-68
2023/05/24 04:30:10;;;;;;;9.30;5.13;;;;;;;16.90;72.10;99924.00;5035042;28;20120;-68
2023/05/24 04:32:36;;;;;;;10.38;5.47;;;;;;;16.90;72.22;99926.66;5048142;28;20025;-68
2023/05/24 04:35:01;;;;;;;10.90;5.70;;;;;;;16.92;72.08;99912.38;5056410;28;20033;-68
2023/05/24 04:37:28;;;;;;;13.00;5.65;;;;;;;16.96;72.03;99917.56;5056460;28;20029;-68
2023/05/24 04:39:54;;;;;;;11.27;5.57;;;;;;;16.98;71.75;99915.72;5056173;28;20033;-68
2023/05/24 04:42:20;;;;;;;10.17;5.33;;;;;;;17.01;72.01;99918.34;5053004;28;20025;-68
2023/05/24 04:44:45;;;;;;;12.75;5.88;;;;;;;17.03;71.83;99916.47;5036241;28;20035;-68
2023/05/24 04:47:11;;;;;;;11.17;5.87;;;;;;;17.01;72.23;99911.19;5039007;28;20021;-67
2023/05/24 04:49:37;;;;;;;10.73;5.30;;;;;;;17.04;71.71;99912.91;5056246;28;20021;-68
2023/05/24 04:52:03;;;;;;;12.88;6.35;;;;;;;17.03;71.73;99911.16;5055998;28;20036;-67
2023/05/24 04:54:29;;;;;;;11.70;5.90;;;;;;;17.03;71.81;99917.34;5054950;28;20162;-68
2023/05/24 04:56:54;;;;;;;11.27;6.55;;;;;;;17.03;71.83;99919.13;5040429;28;20099;-67
2023/05/24 04:59:20;;;;;;;11.97;6.20;;;;;;;17.01;72.10;99923.66;5035192;28;20037;-68
2023/05/24 05:01:45;;;;;;;12.13;6.63;;;;;;;16.96;72.11;99918.44;5036280;28;20025;-68
2023/05/24 05:04:11;;;;;;;10.52;6.47;;;;;;;16.95;72.32;99924.69;5046891;28;20493;-67
2023/05/24 05:06:42;;;;;;;13.00;7.10;;;;;;;16.93;72.42;99922.09;5050832;28;20051;-67
2023/05/24 05:09:09;;;;;;;13.38;7.40;;;;;;;16.89;72.43;99919.59;5036242;28;20104;-67
2023/05/24 05:11:35;;;;;;;11.82;6.88;;;;;;;16.85;72.52;99926.81;5036007;28;20087;-67
2023/05/24 05:14:01;;;;;;;15.23;7.13;;;;;;;16.83;72.61;99925.13;5034352;28;20496;-67
2023/05/24 05:16:27;;;;;;;13.80;7.30;;;;;;;16.83;72.44;99926.00;5036036;28;20022;-67
2023/05/24 05:18:52;;;;;;;12.97;7.57;;;;;;;16.81;72.83;99927.84;5036025;28;20021;-67
2023/05/24 05:21:17;;;;;;;12.33;7.20;;;;;;;16.76;72.78;99925.34;5035772;28;20335;-67
2023/05/24 05:23:44;;;;;;;13.50;7.43;;;;;;;16.77;72.85;99928.88;5035005;28;20021;-68
2023/05/24 05:26:10;;;;;;;12.68;7.18;;;;;;;16.78;72.89;99925.31;5035846;28;20031;-68
2023/05/24 05:28:36;;;;;;;14.33;7.83;;;;;;;16.80;73.07;99928.78;5045509;28;20505;-67
2023/05/24 05:31:01;;;;;;;15.40;7.57;;;;;;;16.80;72.71;99926.13;5055632;28;20025;-67
2023/05/24 05:33:27;;;;;;;13.33;7.53;;;;;;;16.83;72.76;99919.81;5055955;28;20094;-68
2023/05/24 05:35:52;;;;;;;13.70;7.17;;;;;;;16.85;72.64;99918.84;5055645;28;20051;-68
2023/05/24 05:38:17;;;;;;;13.70;7.83;;;;;;;16.90;72.60;99924.84;5055754;28;20287;-68
2023/05/24 05:40:43;;;;;;;13.97;8.00;;;;;;;16.94;72.45;99922.97;5054053;28;20056;-67
2023/05/24 05:43:08;;;;;;;13.37;8.53;;;;;;;16.98;72.59;99923.69;5048214;28;20026;-68
2023/05/24 05:45:34;;;;;;;13.97;7.53;;;;;;;17.02;72.50;99928.03;5039051;28;20030;-68
2023/05/24 05:47:59;;;;;;;13.55;7.25;;;;;;;17.07;72.35;99931.41;5048257;28;20017;-68
2023/05/24 05:50:25;;;;;;;13.50;8.00;;;;;;;17.11;72.25;99925.03;5042931;28;20029;-68
2023/05/24 05:52:50;;;;;;;13.53;8.73;;;;;;;17.15;72.22;99921.34;5041411;28;20040;-68
2023/05/24 05:55:15;;;;;;;14.33;8.33;;;;;;;17.17;72.33;99932.78;5047930;28;20033;-68
2023/05/24 05:57:41;;;;;;;14.93;7.72;;;;;;;17.20;72.27;99927.34;5037864;28;20590;-68
2023/05/24 06:00:07;;;;;;;14.27;7.97;;;;;;;17.20;72.23;99931.81;5038676;28;20021;-68
2023/05/24 06:02:33;;;;;;;14.40;7.63;;;;;;;17.25;72.06;99947.63;5043593;28;20437;-67
2023/05/24 06:04:59;;;;;;;13.97;7.50;;;;;;;17.30;71.96;99953.63;5038996;28;20041;-68
2023/05/24 06:07:24;;;;;;;15.35;7.95;;;;;;;17.33;71.81;99948.19;5052231;28;20022;-68
2023/05/24 06:09:50;;;;;;;13.17;7.83;;;;;;;17.36;71.75;99951.63;5038546;28;20431;-68
2023/05/24 06:12:15;;;;;;;14.32;8.00;;;;;;;17.39;71.71;99958.59;5037911;28;20025;-68
2023/05/24 06:14:41;;;;;;;12.30;7.13;;;;;;;17.47;71.60;99955.66;5038279;28;20072;-68
2023/05/24 06:17:06;;;;;;;14.70;8.80;;;;;;;17.53;71.47;99954.56;5045114;28;20056;-68
2023/05/24 06:19:32;;;;;;;15.98;7.38;;;;;;;17.58;71.30;99964.09;5042519;28;20092;-68
2023/05/24 06:21:58;;;;;;;11.70;7.27;;;;;;;17.65;71.23;99962.94;5037943;28;20028;-68
2023/05/24 06:24:23;;;;;;;13.95;7.25;;;;;;;17.74;71.19;99959.06;5044134;28;20024;-68
2023/05/24 06:26:50;;;;;;;12.97;7.80;;;;;;;17.84;70.77;99964.03;5056939;28;20094;-68
2023/05/24 06:29:19;;;;;;;12.65;7.28;;;;;;;17.94;70.40;99962.72;5058100;28;20064;-68
2023/05/24 06:31:46;;;;;;;11.93;7.00;;;;;;;18.02;70.23;99970.44;5048980;28;20040;-70
2023/05/24 06:34:11;;;;;;;14.20;7.43;;;;;;;18.08;70.22;99964.88;5047203;28;20077;-69
2023/05/24 06:36:41;;;;;;;11.95;6.82;;;;;;;18.11;70.06;99970.09;5047242;28;20029;-69
2023/05/24 06:39:11;;;;;;;11.85;6.55;;;;;;;18.10;69.91;99971.03;5038024;28;20156;-70
2023/05/24 06:41:38;;;;;;;14.45;7.20;;;;;;;18.13;69.72;99972.69;5054311;28;20059;-70
2023/05/24 06:44:03;;;;;;;13.97;7.07;;;;;;;18.14;69.74;99974.41;5041073;28;20065;-70
2023/05/24 06:46:29;;;;;;;14.40;7.55;;;;;;;18.23;69.67;99968.72;5049158;28;20029;-70
2023/05/24 06:48:55;;;;;;;12.07;6.97;;;;;;;18.34;69.41;99970.97;5048416;28;20095;-70
2023/05/24 06:51:20;;;;;;;11.35;6.25;;;;;;;18.44;69.30;99963.41;5047329;28;20037;-71
2023/05/24 06:53:46;;;;;;;12.37;6.70;;;;;;;18.54;68.70;99966.56;5040580;28;20037;-70
2023/05/24 06:56:11;;;;;;;14.63;7.07;;;;;;;18.64;68.77;99974.13;5045615;28;20069;-70
2023/05/24 06:58:37;;;;;;;12.20;6.72;;;;;;;18.70;68.64;99970.34;5037646;28;20105;-70
2023/05/24 07:01:03;;;;;;;11.60;7.00;;;;;;;18.69;68.15;99973.06;5037361;28;20091;-70
2023/05/24 07:03:32;;;;;;;13.43;7.35;;;;;;;18.64;68.04;99963.44;5048708;28;20049;-69
2023/05/24 07:05:57;;;;;;;12.20;6.60;;;;;;;18.62;68.16;99972.47;5051070;28;20055;-70
2023/05/24 07:08:26;;;;;;;13.10;6.93;;;;;;;18.63;68.07;99972.38;5044216;28;20093;-70
2023/05/24 07:10:55;;;;;;;11.82;6.78;;;;;;;18.68;68.23;99973.97;5045773;28;20040;-70
2023/05/24 07:13:20;;;;;;;11.23;7.00;;;;;;;18.74;68.33;99977.25;5041251;28;20037;-71
2023/05/24 07:15:46;;;;;;;11.80;6.83;;;;;;;18.81;68.20;99980.53;5036801;28;20043;-70
2023/05/24 07:18:12;;;;;;;12.05;6.47;;;;;;;18.86;67.89;99983.03;5035955;28;20034;-71
2023/05/24 07:20:37;;;;;;;11.70;6.73;;;;;;;18.89;67.99;99983.72;5054677;28;20454;-70
2023/05/24 07:23:03;;;;;;;12.65;6.80;;;;;;;18.85;67.92;99990.13;5047479;28;20057;-70
2023/05/24 07:25:30;;;;;;;14.50;7.27;;;;;;;18.80;67.83;99994.81;5045827;28;20044;-70
2023/05/24 07:27:55;;;;;;;12.02;7.15;;;;;;;18.74;68.16;99993.28;5042323;28;20478;-71
2023/05/24 07:30:21;;;;;;;11.80;7.63;;;;;;;18.68;68.24;99995.31;5044653;28;20029;-71
2023/05/24 07:32:46;;;;;;;12.18;7.05;;;;;;;18.64;68.37;99991.94;5039388;28;20029;-72
2023/05/24 07:35:12;;;;;;;12.77;6.97;;;;;;;18.59;68.25;99988.59;5036889;28;20033;-71
2023/05/24 07:37:38;;;;;;;13.67;7.77;;;;;;;18.57;68.51;99985.97;5047718;28;20507;-70
2023/05/24 07:40:07;;;;;;;12.45;7.53;;;;;;;18.58;68.21;99987.72;5046767;28;20016;-70
2023/05/24 07:42:32;;;;;;;14.00;7.65;;;;;;;18.61;68.07;99995.59;5046153;28;20025;-71
2023/05/24 07:44:57;;;;;;;13.67;8.63;;;;;;;18.63;67.95;99985.72;5045475;28;20020;-70
2023/05/24 07:47:23;;;;;;;13.43;7.37;;;;;;;18.72;67.80;99975.63;5039320;28;20113;-70
2023/05/24 07:49:48;;;;;;;13.80;7.45;;;;;;;18.88;67.62;99983.81;5043452;28;20021;-70
2023/05/24 07:52:13;;;;;;;13.33;8.40;;;;;;;18.99;67.02;99980.72;5043180;28;20477;-70
2023/05/24 07:54:39;;;;;;;13.87;7.17;;;;;;;19.05;66.97;99983.09;5049605;28;20021;-71
2023/05/24 07:57:06;;;;;;;12.50;7.72;;;;;;;19.07;66.93;99994.59;5048344;28;20060;-70
2023/05/24 07:59:32;;;;;;;13.27;8.15;;;;;;;19.11;67.10;99988.16;5044576;28;20510;-71
2023/05/24 08:02:02;;;;;;;16.17;8.27;;;;;;;19.07;66.71;99999.91;5043696;28;20370;-71
2023/05/24 08:04:28;;;;;;;12.80;7.60;;;;;;;19.06;66.18;100004.41;5043400;28;20026;-71
2023/05/24 08:06:54;;;;;;;12.60;7.70;;;;;;;19.13;66.30;100002.31;5047248;28;20382;-71
2023/05/24 08:09:20;;;;;;;12.45;7.60;;;;;;;19.25;66.16;99998.22;5045922;28;20017;-71
2023/05/24 08:11:45;;;;;;;13.53;7.80;;;;;;;19.40;65.76;100002.00;5047760;28;20056;-71
2023/05/24 08:14:10;;;;;;;13.23;8.10;;;;;;;19.57;65.44;100005.72;5045038;28;20493;-71
2023/05/24 08:16:36;;;;;;;13.35;7.72;;;;;;;19.71;65.05;100002.41;5045876;28;20048;-71
2023/05/24 08:19:01;;;;;;;12.77;8.17;;;;;;;19.84;64.74;100002.72;5048319;28;20035;-71
2023/05/24 08:21:28;;;;;;;12.77;7.93;;;;;;;20.03;64.65;100002.75;5047781;28;20532;-71
2023/05/24 08:23:53;;;;;;;13.40;7.78;;;;;;;20.20;63.71;100005.47;5058232;28;20385;-71
2023/05/24 08:26:19;;;;;;;15.57;8.27;;;;;;;20.26;64.25;100009.66;5040412;28;20034;-71
2023/05/24 08:28:45;;;;;;;14.43;8.40;;;;;;;20.27;63.54;100006.03;5044687;28;20024;-71
2023/05/24 08:31:10;;;;;;;13.83;8.23;;;;;;;20.32;63.39;100014.69;5048718;28;20029;-71
2023/05/24 08:33:36;;;;;;;13.77;7.80;;;;;;;20.34;63.06;100001.25;5043759;28;20025;-71
2023/05/24 08:36:01;;;;;;;14.03;7.90;;;;;;;20.31;63.02;100012.97;5037961;28;20025;-71
2023/05/24 08:38:28;;;;;;;12.93;7.67;;;;;;;20.26;63.15;100006.97;5059728;28;20037;-71
2023/05/24 08:40:53;;;;;;;14.23;7.80;;;;;;;20.23;63.55;100015.16;5051948;28;20021;-71
2023/05/24 08:43:20;;;;;;;15.37;8.10;;;;;;;20.19;63.09;100013.56;5052681;28;20032;-71
2023/05/24 08:45:47;;;;;;;12.93;7.43;;;;;;;20.13;63.28;100013.84;5051570;28;20025;-71
2023/05/24 08:48:13;;;;;;;12.52;7.53;;;;;;;20.14;63.36;100016.47;5050335;28;20078;-71
2023/05/24 08:50:41;;;;;;;12.70;7.45;;;;;;;20.23;63.07;100017.84;5045770;28;20036;-71
2023/05/24 08:53:10;;;;;;;16.65;8.10;;;;;;;20.36;63.08;100016.28;5055131;28;20022;-71
2023/05/24 08:55:36;;;;;;;13.87;8.30;;;;;;;20.49;62.16;100021.03;5050407;28;20135;-71
2023/05/24 08:58:03;;;;;;;12.60;7.88;;;;;;;20.52;61.91;100015.53;5049767;28;20032;-71
2023/05/24 09:00:29;;;;;;;11.73;7.40;;;;;;;20.57;61.89;100012.63;5047730;28;20050;-71
2023/05/24 09:02:56;;;;;;;14.13;8.10;;;;;;;20.64;62.22;100014.94;5049907;28;20108;-70
2023/05/24 09:05:21;;;;;;;14.27;7.65;;;;;;;20.69;62.04;100016.50;5041962;28;20046;-71
2023/05/24 09:07:49;;;;;;;15.23;7.60;;;;;;;20.68;61.56;100010.28;5053059;28;20373;-71
2023/05/24 09:10:18;;;;;;;11.50;7.18;;;;;;;20.71;61.49;100011.94;5045897;28;20101;-71
2023/05/24 09:12:47;;;;;;;14.63;7.20;;;;;;;20.71;61.65;100003.91;5039819;28;20022;-71
2023/05/24 09:15:13;;;;;;;12.27;7.63;;;;;;;20.73;61.85;100002.03;5060896;28;20028;-71
2023/05/24 09:17:39;;;;;;;11.80;7.17;;;;;;;20.81;61.45;100005.19;5060954;28;20028;-71
2023/05/24 09:20:08;;;;;;;15.13;7.72;;;;;;;20.91;61.38;100006.47;5051096;28;20017;-71
2023/05/24 09:22:36;;;;;;;13.45;7.72;;;;;;;21.00;61.32;100004.25;5039121;28;20075;-71
2023/05/24 09:25:03;;;;;;;13.85;8.13;;;;;;;21.04;61.03;99996.00;5045174;28;20025;-71
2023/05/24 09:27:31;;;;;;;14.43;7.75;;;;;;;21.11;61.26;99996.53;5044525;28;20021;-71
2023/05/24 09:29:57;;;;;;;11.77;7.77;;;;;;;21.22;61.25;99988.78;5055238;28;20393;-71
2023/05/24 09:32:23;;;;;;;12.38;7.45;;;;;;;21.36;61.08;99989.88;5044478;28;20033;-71
2023/05/24 09:34:52;;;;;;;12.73;7.60;;;;;;;21.48;60.42;99988.34;5038877;28;20436;-71
2023/05/24 09:37:20;;;;;;;11.85;6.55;;;;;;;21.51;60.35;99994.41;5038637;28;20079;-71
2023/05/24 09:39:47;;;;;;;14.20;7.60;;;;;;;21.47;60.42;100005.38;5042862;28;20025;-71
2023/05/24 09:42:23;;;;;;;11.13;6.80;;;;;;;21.37;59.62;99996.97;5053964;28;20086;-73
2023/05/24 09:45:09;;;;;;;11.73;6.90;;;;;;;21.18;60.15;99995.25;5038762;28;20028;-72
2023/05/24 09:47:40;;;;;;;12.03;6.73;;;;;;;21.13;60.13;99997.31;5044574;28;20049;-71
2023/05/24 09:50:12;;;;;;;12.00;7.05;;;;;;;21.11;60.77;99996.53;5057389;28;20045;-71
2023/05/24 09:52:38;;;;;;;10.80;6.63;;;;;;;21.17;60.75;100001.56;5060226;28;20018;-71
2023/05/24 09:55:17;;;;;;;11.15;6.35;;;;;;;21.20;60.27;100005.88;5051734;28;20078;-72
2023/05/24 09:57:44;;;;;;;9.95;6.00;;;;;;;21.30;60.37;100006.25;5043988;28;20029;-72
2023/05/24 10:00:16;;;;;;;10.30;5.80;;;;;;;21.47;59.88;100008.91;5045690;28;20115;-72
2023/05/24 10:02:45;;;;;;;10.35;6.30;;;;;;;21.56;59.26;100004.88;5041967;28;20033;-71
2023/05/24 10:05:11;;;;;;;9.65;5.63;;;;;;;21.67;59.14;100004.31;5045406;28;20049;-71
2023/05/24 10:07:37;;;;;;;10.07;5.80;;;;;;;21.78;58.75;99996.53;5050395;28;20473;-71
2023/05/24 10:10:04;;;;;;;10.23;6.07;;;;;;;21.80;58.43;99999.16;5047438;28;20079;-72
2023/05/24 10:12:33;;;;;;;12.40;5.97;;;;;;;21.69;58.61;99999.75;5043610;28;20260;-72
2023/05/24 10:14:59;;;;;;;14.20;7.10;;;;;;;21.52;59.15;100006.84;5039508;28;20029;-72
2023/05/24 10:17:28;;;;;;;13.23;7.45;;;;;;;21.36;59.54;100012.16;5037985;28;20025;-71
2023/05/24 10:19:53;;;;;;;14.77;6.80;;;;;;;21.18;59.61;100013.13;5038177;28;20032;-70
2023/05/24 10:22:21;;;;;;;10.40;6.40;;;;;;;21.05;59.50;100013.78;5041789;28;20800;-71
2023/05/24 10:24:50;;;;;;;11.80;6.28;;;;;;;20.88;59.81;100022.69;5042010;28;20029;-71
2023/05/24 10:27:22;;;;;;;10.45;6.28;;;;;;;20.75;59.49;100021.53;5045751;28;20025;-70
2023/05/24 10:29:53;;;;;;;9.47;6.10;;;;;;;20.74;60.21;100014.44;5049858;28;20018;-69
2023/05/24 10:32:20;;;;;;;12.32;6.43;;;;;;;20.79;60.00;100018.66;5042443;28;20485;-70
2023/05/24 10:34:46;;;;;;;10.23;5.85;;;;;;;20.84;60.27;100015.75;5038291;28;20036;-70
2023/05/24 10:37:11;;;;;;;11.07;6.70;;;;;;;20.85;59.92;100012.13;5043976;28;20025;-70
2023/05/24 10:39:37;;;;;;;11.93;6.30;;;;;;;20.86;59.96;100013.88;5037283;28;20036;-69
2023/05/24 10:42:04;;;;;;;10.67;6.57;;;;;;;20.94;59.75;100006.31;5047168;28;20092;-69
2023/05/24 10:44:30;;;;;;;11.50;6.43;;;;;;;21.07;60.11;100002.97;5046872;28;20022;-70
2023/05/24 10:47:09;;;;;;;11.35;6.60;;;;;;;21.15;59.55;100003.47;5047228;28;20071;-70
2023/05/24 10:49:36;;;;;;;10.38;6.43;;;;;;;21.27;59.63;100001.06;5045329;28;20017;-70
2023/05/24 10:52:07;;;;;;;10.93;6.53;;;;;;;21.37;59.88;99999.66;5043733;28;20021;-70
2023/05/24 10:54:32;;;;;;;11.67;6.80;;;;;;;21.51;59.45;99991.72;5050920;28;20059;-70
2023/05/24 10:57:03;;;;;;;11.30;6.55;;;;;;;21.70;59.58;99992.53;5040901;28;20030;-71
2023/05/24 10:59:38;;;;;;;10.83;6.33;;;;;;;21.92;58.92;99989.56;5043510;28;20429;-71
2023/05/24 11:02:12;;;;;;;11.65;7.07;;;;;;;22.11;58.75;99988.53;5035622;28;20037;-71
2023/05/24 11:04:42;;;;;;;10.82;6.28;;;;;;;22.25;58.13;99993.09;5043271;28;20543;-70
2023/05/24 11:07:08;;;;;;;11.75;7.32;;;;;;;22.42;58.24;99986.75;5054471;28;20041;-71
2023/05/24 11:09:36;;;;;;;12.40;7.63;;;;;;;22.53;58.05;100000.41;5037009;28;20051;-71
2023/05/24 11:12:06;;;;;;;12.07;7.07;;;;;;;22.64;57.59;99989.94;5036805;28;20032;-71
2023/05/24 11:14:38;;;;;;;12.82;7.93;;;;;;;22.70;57.23;99994.09;5037355;28;20036;-71
2023/05/24 11:17:05;;;;;;;13.40;7.53;;;;;;;22.72;57.04;99997.53;5042124;28;20033;-71
2023/05/24 11:19:52;;;;;;;12.15;7.13;;;;;;;22.63;56.92;100006.13;5036884;28;20025;-71
2023/05/24 11:22:20;;;;;;;11.60;7.07;;;;;;;22.75;56.37;100001.84;5042766;28;20040;-71
2023/05/24 11:24:46;;;;;;;10.13;5.83;;;;;;;22.82;56.30;99997.84;5039044;28;20030;-71
2023/05/24 11:27:12;;;;;;;10.07;6.10;;;;;;;22.97;56.36;99989.81;5036872;28;20018;-70